createdAt,value
2017-09-01T00:00:51.962Z,12.87
2017-09-01T00:03:19.519Z,10.03
2017-09-01T00:05:47.027Z,12.77
2017-09-01T00:08:14.561Z,13.20
2017-09-01T00:10:42.078Z,12.93
2017-09-01T00:13:09.619Z,13.67
2017-09-01T00:15:37.137Z,12.43
2017-09-01T00:18:04.663Z,11.30
2017-09-01T00:20:32.181Z,12.50
2017-09-01T00:22:59.728Z,12.13
2017-09-01T00:25:27.285Z,12.00
2017-09-01T00:27:54.825Z,13.50
2017-09-01T00:30:22.324Z,14.77
2017-09-01T00:32:49.861Z,12.10
2017-09-01T00:35:20.350Z,17.27
2017-09-01T00:37:47.896Z,14.13
2017-09-01T00:40:15.410Z,14.10
2017-09-01T00:42:42.941Z,13.43
2017-09-01T00:45:10.469Z,14.13
2017-09-01T00:47:37.994Z,12.83
2017-09-01T00:50:05.506Z,11.50
2017-09-01T00:52:33.018Z,13.53
2017-09-01T00:55:00.564Z,14.90
2017-09-01T00:57:28.113Z,12.43
2017-09-01T00:59:55.641Z,12.87
2017-09-01T01:02:23.169Z,13.60
2017-09-01T01:04:50.694Z,12.63
2017-09-01T01:07:18.224Z,14.67
2017-09-01T01:09:45.766Z,17.23
2017-09-01T01:12:13.297Z,17.90
2017-09-01T01:14:40.829Z,14.13
2017-09-01T01:17:08.358Z,19.40
2017-09-01T01:19:35.898Z,16.13
2017-09-01T01:22:03.410Z,13.07
2017-09-01T01:24:30.958Z,15.83
2017-09-01T01:26:58.461Z,15.37
2017-09-01T01:29:26.007Z,17.17
2017-09-01T01:31:53.513Z,15.13
2017-09-01T01:34:21.046Z,19.87
2017-09-01T01:36:48.564Z,15.00
2017-09-01T01:39:16.139Z,13.63
2017-09-01T01:41:43.667Z,17.00
2017-09-01T01:44:11.189Z,16.40
2017-09-01T01:46:38.748Z,16.97
2017-09-01T01:49:06.299Z,10.93
2017-09-01T01:51:33.842Z,13.13
2017-09-01T01:54:01.373Z,15.70
2017-09-01T01:56:28.915Z,16.20
2017-09-01T01:58:56.426Z,13.50
2017-09-01T02:01:23.979Z,10.87
2017-09-01T02:03:51.485Z,13.30
2017-09-01T02:06:22.485Z,15.13
2017-09-01T02:08:49.982Z,12.20
2017-09-01T02:11:17.526Z,15.13
2017-09-01T02:13:45.037Z,13.67
2017-09-01T02:16:12.557Z,14.63
2017-09-01T02:18:40.076Z,16.93
2017-09-01T02:21:07.618Z,17.57
2017-09-01T02:23:35.144Z,12.67
2017-09-01T02:26:02.681Z,16.67
2017-09-01T02:28:30.238Z,12.40
2017-09-01T02:30:57.775Z,11.80
2017-09-01T02:33:25.344Z,9.47
2017-09-01T02:35:56.424Z,9.80
2017-09-01T02:38:23.930Z,11.57
2017-09-01T02:40:51.459Z,13.20
2017-09-01T02:43:19.014Z,10.60
2017-09-01T02:45:46.540Z,14.90
2017-09-01T02:48:14.073Z,15.37
2017-09-01T02:50:41.589Z,13.70
2017-09-01T02:53:09.142Z,19.10
2017-09-01T02:55:36.655Z,20.73
2017-09-01T02:58:04.188Z,22.70
2017-09-01T03:00:31.697Z,17.80
2017-09-01T03:02:59.243Z,21.80
2017-09-01T03:05:26.750Z,23.07
2017-09-01T03:07:54.279Z,25.60
2017-09-01T03:10:21.798Z,30.20
2017-09-01T03:12:49.335Z,29.63
2017-09-01T03:15:16.869Z,28.53
2017-09-01T03:17:44.410Z,23.60
2017-09-01T03:20:11.916Z,24.57
2017-09-01T03:22:39.455Z,22.97
2017-09-01T03:25:06.966Z,22.30
2017-09-01T03:27:34.546Z,29.03
2017-09-01T03:30:02.058Z,25.07
2017-09-01T03:32:29.552Z,26.37
2017-09-01T03:34:57.080Z,26.73
2017-09-01T03:37:24.608Z,30.60
2017-09-01T03:39:52.143Z,25.10
2017-09-01T03:42:19.661Z,26.33
2017-09-01T03:44:47.198Z,30.30
2017-09-01T03:47:14.710Z,25.73
2017-09-01T03:49:42.240Z,27.60
2017-09-01T03:52:09.748Z,34.10
2017-09-01T03:54:37.275Z,25.80
2017-09-01T03:57:04.780Z,30.10
2017-09-01T03:59:32.331Z,28.53
2017-09-01T04:01:59.848Z,30.98
2017-09-01T04:04:27.369Z,27.00
2017-09-01T04:06:54.893Z,31.10
2017-09-01T04:09:22.410Z,32.53
2017-09-01T04:11:49.913Z,30.87
2017-09-01T04:14:17.439Z,31.80
2017-09-01T04:16:44.956Z,27.10
2017-09-01T04:19:12.485Z,28.67
2017-09-01T04:21:40.010Z,31.40
2017-09-01T04:24:07.520Z,27.10
2017-09-01T04:26:35.038Z,27.33
2017-09-01T04:29:02.542Z,25.67
2017-09-01T04:31:30.058Z,27.40
2017-09-01T04:33:57.572Z,22.10
2017-09-01T04:36:25.110Z,23.90
2017-09-01T04:38:52.624Z,23.43
2017-09-01T04:41:20.155Z,24.45
2017-09-01T04:43:47.703Z,21.53
2017-09-01T04:46:15.260Z,21.00
2017-09-01T04:48:42.776Z,19.63
2017-09-01T04:51:10.292Z,25.10
2017-09-01T04:53:37.795Z,20.93
2017-09-01T04:56:05.343Z,17.77
2017-09-01T04:58:32.846Z,13.60
2017-09-01T05:01:00.357Z,13.60
2017-09-01T05:03:27.885Z,15.63
2017-09-01T05:05:55.434Z,13.93
2017-09-01T05:08:22.978Z,13.48
2017-09-01T05:10:50.524Z,17.47
2017-09-01T05:13:18.120Z,11.67
2017-09-01T05:15:45.682Z,11.85
2017-09-01T05:18:13.354Z,11.00
2017-09-01T05:20:40.906Z,11.75
2017-09-01T05:23:08.452Z,10.30
2017-09-01T05:25:36.006Z,7.23
2017-09-01T05:28:03.589Z,12.10
2017-09-01T05:30:31.189Z,10.57
2017-09-01T05:32:59.669Z,14.33
2017-09-01T05:35:27.192Z,14.80
2017-09-01T05:37:58.698Z,15.50
2017-09-01T05:40:26.234Z,11.60
2017-09-01T05:42:53.775Z,15.18
2017-09-01T05:45:21.281Z,14.70
2017-09-01T05:47:48.832Z,13.00
2017-09-01T05:50:16.337Z,17.40
2017-09-01T05:52:43.856Z,19.40
2017-09-01T05:55:11.357Z,20.17
2017-09-01T05:57:38.889Z,17.27
2017-09-01T06:00:06.445Z,24.33
2017-09-01T06:02:33.949Z,20.73
2017-09-01T06:05:01.772Z,24.50
2017-09-01T06:07:29.379Z,23.03
2017-09-01T06:09:57.006Z,20.50
2017-09-01T06:12:24.597Z,19.80
2017-09-01T06:14:52.201Z,17.93
2017-09-01T06:17:19.823Z,17.40
2017-09-01T06:19:47.492Z,18.10
2017-09-01T06:22:15.321Z,22.13
2017-09-01T06:24:42.954Z,21.70
2017-09-01T06:27:10.570Z,26.93
2017-09-01T06:29:40.370Z,26.50
2017-09-01T06:32:07.953Z,24.07
2017-09-01T06:34:35.488Z,21.80
2017-09-01T06:37:03.373Z,28.97
2017-09-01T06:39:30.988Z,30.70
2017-09-01T06:41:58.616Z,35.93
2017-09-01T06:44:29.477Z,34.97
2017-09-01T06:46:57.332Z,27.83
2017-09-01T06:49:24.994Z,26.53
2017-09-01T06:51:52.621Z,29.73
2017-09-01T06:54:20.201Z,30.83
2017-09-01T06:56:47.761Z,28.80
2017-09-01T06:59:15.417Z,34.53
2017-09-01T07:01:43.082Z,28.50
2017-09-01T07:04:10.714Z,28.93
2017-09-01T07:06:38.306Z,32.23
2017-09-01T07:09:05.945Z,33.73
2017-09-01T07:11:33.573Z,36.43
2017-09-01T07:14:01.213Z,34.30
2017-09-01T07:16:28.796Z,29.70
2017-09-01T07:18:56.429Z,34.53
2017-09-01T07:21:24.115Z,35.03
2017-09-01T07:23:54.908Z,34.87
2017-09-01T07:26:22.472Z,39.57
2017-09-01T07:28:50.088Z,39.90
2017-09-01T07:31:17.736Z,36.43
2017-09-01T07:33:45.367Z,37.03
2017-09-01T07:36:12.979Z,34.13
2017-09-01T07:38:40.663Z,36.93
2017-09-01T07:41:08.355Z,32.37
2017-09-01T07:43:35.957Z,38.13
2017-09-01T07:49:08.975Z,31.70
2017-09-01T07:51:36.632Z,36.20
2017-09-01T07:54:04.242Z,34.90
2017-09-01T07:56:32.100Z,33.90
2017-09-01T07:58:59.842Z,40.20
2017-09-01T08:01:29.199Z,34.07
2017-09-01T08:03:57.031Z,33.87
2017-09-01T08:06:31.580Z,32.30
2017-09-01T08:09:00.388Z,32.73
2017-09-01T08:11:28.743Z,42.00
2017-09-01T08:13:56.788Z,32.30
2017-09-01T08:16:24.521Z,30.67
2017-09-01T08:18:52.333Z,32.73
2017-09-01T08:21:21.052Z,35.47
2017-09-01T08:23:48.700Z,28.30
2017-09-01T08:26:16.430Z,23.77
2017-09-01T08:28:45.577Z,25.33
2017-09-01T08:33:46.102Z,29.07
2017-09-01T08:36:13.634Z,25.90
2017-09-01T08:38:41.177Z,19.50
2017-09-01T08:41:08.719Z,23.37
2017-09-01T08:43:36.236Z,17.30
2017-09-01T08:46:03.760Z,16.83
2017-09-01T08:48:31.306Z,18.40
2017-09-01T08:50:58.838Z,19.23
2017-09-01T08:53:26.389Z,21.13
2017-09-01T08:55:53.902Z,24.33
2017-09-01T08:58:21.414Z,20.20
2017-09-01T09:00:48.959Z,20.20
2017-09-01T09:03:16.489Z,25.10
2017-09-01T09:05:44.017Z,19.27
2017-09-01T09:08:11.533Z,26.00
2017-09-01T09:10:39.050Z,24.00
2017-09-01T09:13:06.592Z,22.13
2017-09-01T09:15:34.110Z,20.67
2017-09-01T09:18:01.650Z,20.17
2017-09-01T09:20:29.178Z,21.60
2017-09-01T09:22:56.706Z,22.23
2017-09-01T09:25:27.545Z,24.13
2017-09-01T09:27:55.283Z,25.60
2017-09-01T09:30:22.826Z,24.77
2017-09-01T09:32:54.821Z,22.93
2017-09-01T09:35:22.404Z,24.77
2017-09-01T09:37:49.933Z,18.00
2017-09-01T09:40:17.448Z,20.03
2017-09-01T09:42:44.989Z,19.33
2017-09-01T09:45:12.532Z,19.40
2017-09-01T09:47:40.067Z,17.20
2017-09-01T09:50:07.580Z,15.30
2017-09-01T09:52:35.147Z,19.40
2017-09-01T09:55:02.706Z,18.00
2017-09-01T09:57:30.256Z,19.37
2017-09-01T09:59:57.813Z,20.80
2017-09-01T10:02:25.423Z,22.10
2017-09-01T10:04:53.034Z,26.73
2017-09-01T10:07:21.142Z,19.90
2017-09-01T10:09:48.783Z,19.97
2017-09-01T10:12:16.335Z,20.43
2017-09-01T10:14:43.886Z,19.43
2017-09-01T10:17:12.502Z,16.83
2017-09-01T10:19:40.074Z,16.90
2017-09-01T10:22:07.642Z,17.90
2017-09-01T10:24:35.222Z,18.83
2017-09-01T10:27:02.878Z,16.50
2017-09-01T10:29:30.460Z,17.97
2017-09-01T10:31:58.066Z,14.63
2017-09-01T10:34:25.677Z,19.40
2017-09-01T10:36:53.296Z,17.53
2017-09-01T10:39:21.025Z,18.37
2017-09-01T10:41:48.579Z,18.60
2017-09-01T10:44:16.227Z,17.83
2017-09-01T10:46:43.893Z,17.83
2017-09-01T10:52:32.116Z,19.60
2017-09-01T10:55:11.283Z,20.60
2017-09-01T10:57:50.639Z,14.60
2017-09-01T11:00:18.222Z,16.50
2017-09-01T11:02:45.835Z,14.77
2017-09-01T11:05:19.373Z,11.70
2017-09-01T11:07:46.968Z,15.80
2017-09-01T11:10:31.790Z,12.07
2017-09-01T11:12:59.320Z,12.67
2017-09-01T11:15:26.904Z,15.70
2017-09-01T11:17:54.488Z,17.03
2017-09-01T11:20:27.562Z,13.47
2017-09-01T11:23:00.674Z,12.53
2017-09-01T11:25:28.300Z,16.37
2017-09-01T11:27:56.536Z,14.23
2017-09-01T11:30:24.075Z,12.50
2017-09-01T11:32:51.667Z,13.63
2017-09-01T11:35:19.233Z,12.10
2017-09-01T11:37:46.781Z,15.93
2017-09-01T11:40:14.316Z,11.73
2017-09-01T11:42:41.928Z,10.00
2017-09-01T11:45:10.466Z,10.67
2017-09-01T11:47:38.033Z,10.40
2017-09-01T11:50:05.635Z,10.07
2017-09-01T11:52:33.175Z,12.20
2017-09-01T11:55:02.672Z,9.90
2017-09-01T11:57:30.225Z,10.73
2017-09-01T11:59:57.773Z,10.97
2017-09-01T12:02:25.295Z,9.50
2017-09-01T12:04:53.766Z,9.70
2017-09-01T12:07:21.337Z,11.10
2017-09-01T12:09:48.886Z,8.30
2017-09-01T12:12:16.446Z,10.80
2017-09-01T12:14:44.994Z,10.80
2017-09-01T12:17:12.601Z,10.30
2017-09-01T12:19:40.124Z,11.00
2017-09-01T12:22:07.665Z,16.37
2017-09-01T12:24:36.244Z,11.67
2017-09-01T12:27:07.030Z,13.00
2017-09-01T12:29:34.604Z,9.00
2017-09-01T12:32:02.131Z,9.87
2017-09-01T12:34:33.431Z,9.20
2017-09-01T12:37:00.981Z,9.87
2017-09-01T12:39:28.502Z,9.93
2017-09-01T12:41:56.075Z,11.93
2017-09-01T12:44:23.640Z,11.07
2017-09-01T12:46:51.176Z,7.30
2017-09-01T12:49:18.738Z,9.23
2017-09-01T12:51:46.307Z,12.13
2017-09-01T12:54:13.870Z,9.17
2017-09-01T12:56:41.401Z,9.63
2017-09-01T12:59:08.936Z,9.73
2017-09-01T13:01:36.465Z,11.50
2017-09-01T13:04:03.998Z,7.13
2017-09-01T13:06:31.555Z,7.60
2017-09-01T13:08:59.097Z,7.03
2017-09-01T13:11:26.627Z,8.53
2017-09-01T13:13:54.162Z,9.57
2017-09-01T13:16:21.786Z,7.03
2017-09-01T13:18:49.329Z,8.17
2017-09-01T13:21:16.878Z,10.40
2017-09-01T13:23:44.441Z,8.93
2017-09-01T13:26:12.010Z,11.30
2017-09-01T13:28:39.634Z,11.33
2017-09-01T13:31:07.160Z,12.07
2017-09-01T13:33:34.705Z,8.33
2017-09-01T13:36:03.259Z,8.23
2017-09-01T13:38:31.124Z,9.13
2017-09-01T13:40:58.691Z,8.80
2017-09-01T13:43:29.744Z,10.13
2017-09-01T13:45:57.278Z,7.83
2017-09-01T13:48:24.820Z,8.20
2017-09-01T13:50:52.362Z,12.97
2017-09-01T13:53:19.872Z,9.93
2017-09-01T13:55:47.385Z,7.63
2017-09-01T13:58:14.920Z,10.27
2017-09-01T14:00:42.428Z,9.73
2017-09-01T14:03:09.962Z,9.07
2017-09-01T14:05:37.504Z,8.60
2017-09-01T14:08:05.127Z,9.60
2017-09-01T14:10:34.454Z,11.33
2017-09-01T14:13:02.098Z,8.40
2017-09-01T14:15:29.650Z,7.80
2017-09-01T14:17:57.194Z,8.43
2017-09-01T14:20:25.334Z,8.97
2017-09-01T14:22:52.859Z,6.80
2017-09-01T14:25:20.446Z,6.60
2017-09-01T14:27:48.074Z,8.67
2017-09-01T14:30:15.634Z,7.00
2017-09-01T14:32:43.209Z,15.23
2017-09-01T14:35:10.775Z,7.80
2017-09-01T14:37:38.394Z,7.70
2017-09-01T14:40:05.943Z,6.77
2017-09-01T14:42:33.587Z,8.80
2017-09-01T14:45:01.191Z,7.20
2017-09-01T14:47:28.868Z,7.37
2017-09-01T14:49:56.459Z,8.90
2017-09-01T14:52:24.054Z,8.90
2017-09-01T14:54:51.673Z,8.07
2017-09-01T14:57:19.233Z,6.13
2017-09-01T14:59:46.852Z,6.60
2017-09-01T15:02:14.409Z,9.77
2017-09-01T15:04:41.966Z,6.40
2017-09-01T15:07:09.522Z,6.07
2017-09-01T15:09:37.075Z,7.43
2017-09-01T15:12:04.676Z,10.13
2017-09-01T15:14:34.222Z,6.90
2017-09-01T15:17:01.793Z,6.03
2017-09-01T15:19:29.460Z,9.27
2017-09-01T15:21:57.110Z,10.27
2017-09-01T15:24:24.774Z,8.80
2017-09-01T15:26:52.461Z,7.73
2017-09-01T15:29:20.151Z,8.80
2017-09-01T15:31:47.769Z,9.50
2017-09-01T15:34:15.417Z,8.17
2017-09-01T15:36:43.209Z,9.83
2017-09-01T15:39:10.840Z,10.03
2017-09-01T15:41:38.487Z,9.80
2017-09-01T15:44:06.165Z,7.37
2017-09-01T15:46:33.842Z,9.17
2017-09-01T15:51:36.472Z,5.87
2017-09-01T15:54:04.147Z,8.37
2017-09-01T15:56:31.764Z,7.20
2017-09-01T15:58:59.278Z,7.97
2017-09-01T16:01:26.817Z,8.20
2017-09-01T16:04:00.532Z,7.10
2017-09-01T16:06:28.134Z,8.17
2017-09-01T16:08:55.722Z,6.30
2017-09-01T16:11:23.251Z,7.80
2017-09-01T16:13:50.782Z,8.47
2017-09-01T16:16:19.270Z,7.17
2017-09-01T16:18:46.950Z,8.50
2017-09-01T16:21:14.494Z,10.47
2017-09-01T16:23:42.066Z,8.77
2017-09-01T16:26:09.625Z,8.83
2017-09-01T16:28:37.168Z,8.73
2017-09-01T16:31:05.643Z,7.20
2017-09-01T16:33:33.155Z,6.93
2017-09-01T16:36:01.827Z,8.33
2017-09-01T16:38:29.403Z,6.27
2017-09-01T16:40:56.941Z,8.70
2017-09-01T16:43:24.499Z,10.70
2017-09-01T16:45:52.085Z,8.50
2017-09-01T16:48:28.142Z,6.60
2017-09-01T16:50:55.666Z,9.00
2017-09-01T16:53:23.268Z,10.10
2017-09-01T16:55:51.772Z,11.67
2017-09-01T16:58:19.306Z,7.27
2017-09-01T17:00:52.965Z,9.50
2017-09-01T17:03:21.397Z,10.37
2017-09-01T17:05:48.951Z,10.37
2017-09-01T17:08:16.501Z,8.97
2017-09-01T17:10:48.540Z,8.73
2017-09-01T17:13:16.065Z,11.83
2017-09-01T17:15:43.778Z,8.03
2017-09-01T17:20:44.431Z,12.73
2017-09-01T17:23:12.003Z,12.13
2017-09-01T17:25:47.543Z,15.03
2017-09-01T17:28:15.163Z,11.83
2017-09-01T17:30:47.295Z,9.40
2017-09-01T17:33:14.886Z,12.43
2017-09-01T17:35:43.446Z,9.27
2017-09-01T17:38:11.878Z,18.80
2017-09-01T17:40:42.327Z,8.60
2017-09-01T17:43:09.886Z,13.43
2017-09-01T17:45:37.416Z,9.87
2017-09-01T17:48:10.769Z,8.43
2017-09-01T17:50:38.285Z,10.33
2017-09-01T17:53:05.810Z,9.80
2017-09-01T17:55:35.290Z,9.13
2017-09-01T17:58:02.851Z,10.23
2017-09-01T18:00:41.290Z,13.63
2017-09-01T18:03:08.806Z,7.73
2017-09-01T18:05:36.363Z,9.03
2017-09-01T18:08:04.416Z,9.67
2017-09-01T18:10:33.459Z,10.23
2017-09-01T18:13:00.984Z,9.70
2017-09-01T18:15:28.501Z,9.07
2017-09-01T18:17:56.074Z,8.50
2017-09-01T18:20:23.644Z,14.83
2017-09-01T18:22:51.173Z,10.57
2017-09-01T18:25:18.705Z,11.50
2017-09-01T18:27:46.216Z,9.87
2017-09-01T18:30:13.794Z,11.33
2017-09-01T18:32:41.309Z,17.30
2017-09-01T18:35:08.811Z,9.97
2017-09-01T18:37:36.338Z,10.87
2017-09-01T18:40:03.849Z,11.87
2017-09-01T18:42:31.385Z,10.70
2017-09-01T18:44:58.886Z,13.60
2017-09-01T18:47:26.442Z,10.00
2017-09-01T18:49:53.987Z,12.25
2017-09-01T18:52:22.699Z,11.57
2017-09-01T18:54:50.256Z,13.13
2017-09-01T18:57:17.776Z,16.83
2017-09-01T18:59:45.323Z,16.65
2017-09-01T19:02:12.856Z,12.93
2017-09-01T19:04:40.410Z,11.97
2017-09-01T19:07:07.968Z,11.65
2017-09-01T19:09:35.489Z,13.03
2017-09-01T19:12:03.048Z,10.63
2017-09-01T19:14:30.588Z,12.15
2017-09-01T19:16:58.135Z,12.60
2017-09-01T19:19:25.645Z,12.20
2017-09-01T19:21:53.186Z,13.70
2017-09-01T19:24:20.725Z,10.90
2017-09-01T19:26:48.314Z,13.62
2017-09-01T19:29:15.816Z,9.75
2017-09-01T19:31:43.325Z,11.83
2017-09-01T19:34:10.897Z,11.00
2017-09-01T19:36:39.554Z,11.80
2017-09-01T19:39:07.078Z,8.15
2017-09-01T19:41:35.045Z,11.05
2017-09-01T19:44:02.875Z,9.38
2017-09-01T19:46:30.428Z,10.50
2017-09-01T19:48:57.975Z,11.50
2017-09-01T19:51:25.480Z,10.73
2017-09-01T19:53:52.996Z,8.50
2017-09-01T19:56:20.569Z,8.37
2017-09-01T19:58:48.072Z,8.27
2017-09-01T20:01:15.635Z,8.77
2017-09-01T20:03:43.268Z,8.37
2017-09-01T20:06:11.851Z,7.47
2017-09-01T20:08:40.168Z,7.10
2017-09-01T20:11:07.678Z,6.83
2017-09-01T20:13:35.225Z,8.43
2017-09-01T20:16:02.760Z,8.55
2017-09-01T20:18:32.191Z,8.57
2017-09-01T20:20:59.732Z,7.05
2017-09-01T20:23:27.278Z,8.70
2017-09-01T20:26:01.624Z,8.13
2017-09-01T20:28:29.206Z,8.40
2017-09-01T20:30:56.739Z,9.23
2017-09-01T20:33:29.193Z,6.78
2017-09-01T20:35:56.765Z,7.18
2017-09-01T20:38:24.343Z,5.35
2017-09-01T20:40:59.362Z,8.90
2017-09-01T20:43:26.922Z,7.47
2017-09-01T20:45:59.352Z,6.93
2017-09-01T20:48:26.898Z,10.13
2017-09-01T20:50:54.452Z,6.93
2017-09-01T20:53:21.990Z,7.15
2017-09-01T20:55:52.241Z,6.32
2017-09-01T20:58:19.768Z,9.00
2017-09-01T21:00:47.294Z,8.98
2017-09-01T21:03:19.221Z,7.10
2017-09-01T21:05:46.743Z,7.30
2017-09-01T21:08:14.292Z,7.93
2017-09-01T21:10:41.827Z,11.13
2017-09-01T21:13:13.322Z,8.65
2017-09-01T21:15:40.877Z,7.75
2017-09-01T21:18:08.470Z,7.27
2017-09-01T21:20:41.004Z,7.45
2017-09-01T21:23:08.570Z,8.60
2017-09-01T21:25:36.141Z,9.63
2017-09-01T21:28:10.513Z,10.47
2017-09-01T21:30:38.036Z,9.10
2017-09-01T21:33:05.562Z,11.50
2017-09-01T21:35:36.701Z,14.07
2017-09-01T21:38:04.237Z,10.67
2017-09-01T21:40:31.794Z,8.52
2017-09-01T21:43:05.158Z,10.30
2017-09-01T21:45:32.736Z,9.57
2017-09-01T21:48:00.313Z,8.80
2017-09-01T21:50:35.701Z,9.80
2017-09-01T21:53:05.364Z,10.80
2017-09-01T21:55:32.964Z,11.60
2017-09-01T21:58:00.537Z,10.70
2017-09-01T22:00:28.186Z,10.40
2017-09-01T22:02:55.915Z,10.75
2017-09-01T22:05:24.390Z,17.20
2017-09-01T22:07:52.075Z,11.30
2017-09-01T22:10:19.694Z,16.50
2017-09-01T22:12:47.304Z,12.20
2017-09-01T22:15:14.898Z,10.85
2017-09-01T22:17:42.514Z,15.70
2017-09-01T22:20:10.104Z,21.10
2017-09-01T22:22:37.701Z,15.83
2017-09-01T22:25:06.193Z,18.50
2017-09-01T22:27:33.868Z,18.33
2017-09-01T22:30:01.500Z,15.88
2017-09-01T22:32:29.215Z,15.75
2017-09-01T22:34:56.809Z,14.18
2017-09-01T22:37:24.418Z,17.92
2017-09-01T22:39:52.040Z,18.33
2017-09-01T22:42:19.610Z,20.08
2017-09-01T22:44:47.179Z,21.95
2017-09-01T22:47:14.898Z,19.97
2017-09-01T22:49:42.559Z,21.12
2017-09-01T22:52:10.307Z,18.35
2017-09-01T22:54:37.928Z,19.95
2017-09-01T22:57:05.545Z,26.40
2017-09-01T22:59:33.190Z,28.02
2017-09-01T23:02:00.779Z,40.55
2017-09-01T23:04:28.356Z,47.90
2017-09-01T23:06:55.919Z,39.07
2017-09-01T23:09:23.693Z,35.25
2017-09-01T23:11:51.293Z,27.60
2017-09-01T23:14:18.977Z,18.83
2017-09-01T23:16:46.639Z,18.17
2017-09-01T23:19:14.469Z,21.83
2017-09-01T23:21:42.076Z,20.70
2017-09-01T23:24:09.748Z,25.03
2017-09-01T23:26:37.324Z,19.60
2017-09-01T23:29:04.869Z,26.50
2017-09-01T23:31:32.603Z,23.50
2017-09-01T23:34:00.265Z,22.57
2017-09-01T23:36:27.914Z,20.83
2017-09-01T23:38:55.515Z,27.05
2017-09-01T23:41:23.144Z,29.17
2017-09-01T23:43:50.710Z,22.40
2017-09-01T23:46:18.290Z,25.80
2017-09-01T23:48:45.925Z,25.57
2017-09-01T23:51:13.519Z,28.48
2017-09-01T23:53:41.139Z,30.87
2017-09-01T23:56:08.761Z,29.47
2017-09-01T23:58:36.494Z,25.90
